createdAt,value
2023-06-04T00:00:01.229Z,2.65
2023-06-04T00:02:28.410Z,2.53
2023-06-04T00:04:55.626Z,2.63
2023-06-04T00:07:22.846Z,3.17
2023-06-04T00:09:50.052Z,3.03
2023-06-04T00:12:18.025Z,2.53
2023-06-04T00:14:45.266Z,3.20
2023-06-04T00:17:12.691Z,3.03
2023-06-04T00:19:41.712Z,3.03
2023-06-04T00:22:09.509Z,3.10
2023-06-04T00:24:39.165Z,3.20
2023-06-04T00:27:08.089Z,3.17
2023-06-04T00:29:35.233Z,3.78
2023-06-04T00:32:02.656Z,3.92
2023-06-04T00:34:30.059Z,3.58
2023-06-04T00:36:57.197Z,3.72
2023-06-04T00:39:24.304Z,3.92
2023-06-04T00:41:51.446Z,3.80
2023-06-04T00:44:18.879Z,3.50
2023-06-04T00:46:46.812Z,3.35
2023-06-04T00:49:14.142Z,3.92
2023-06-04T00:51:41.654Z,3.67
2023-06-04T00:54:10.424Z,4.20
2023-06-04T00:56:39.867Z,3.28
2023-06-04T00:59:11.007Z,3.42
2023-06-04T01:01:59.827Z,3.90
2023-06-04T01:04:59.516Z,3.70
2023-06-04T01:07:31.516Z,4.18
2023-06-04T01:09:58.995Z,4.18
2023-06-04T01:12:26.310Z,3.72
2023-06-04T01:14:53.479Z,3.90
2023-06-04T01:17:42.230Z,3.75
2023-06-04T01:20:37.150Z,3.75
2023-06-04T01:23:07.164Z,3.70
2023-06-04T01:25:46.706Z,3.63
2023-06-04T01:28:17.090Z,3.60
2023-06-04T01:33:17.332Z,3.25
2023-06-04T01:35:45.108Z,3.40
2023-06-04T01:38:12.491Z,4.03
2023-06-04T01:40:39.671Z,4.22
2023-06-04T01:43:06.805Z,3.83
2023-06-04T01:45:34.098Z,4.13
2023-06-04T01:48:03.352Z,4.63
2023-06-04T01:50:31.748Z,4.07
2023-06-04T01:52:59.324Z,4.80
2023-06-04T01:55:27.266Z,4.47
2023-06-04T01:57:54.739Z,4.15
2023-06-04T02:00:21.949Z,3.83
2023-06-04T02:02:52.005Z,4.20
2023-06-04T02:05:19.376Z,4.40
2023-06-04T02:07:49.087Z,4.20
2023-06-04T02:10:21.043Z,4.43
2023-06-04T02:13:04.667Z,4.65
2023-06-04T02:15:33.285Z,3.83
2023-06-04T02:18:17.657Z,4.30
2023-06-04T02:20:46.632Z,4.40
2023-06-04T02:23:14.863Z,4.05
2023-06-04T02:25:42.491Z,4.00
2023-06-04T02:28:09.810Z,4.45
2023-06-04T02:30:37.196Z,4.55
2023-06-04T02:33:05.242Z,4.40
2023-06-04T02:35:32.848Z,3.75
2023-06-04T02:37:59.965Z,4.28
2023-06-04T02:40:27.586Z,4.20
2023-06-04T02:42:55.834Z,4.38
2023-06-04T02:45:24.075Z,4.97
2023-06-04T02:47:51.257Z,3.80
2023-06-04T02:50:18.972Z,4.13
2023-06-04T02:52:46.089Z,3.90
2023-06-04T02:55:14.022Z,3.90
2023-06-04T02:57:44.957Z,4.20
2023-06-04T03:00:14.704Z,3.65
2023-06-04T03:02:47.587Z,3.47
2023-06-04T03:05:19.463Z,3.60
2023-06-04T03:07:48.139Z,3.72
2023-06-04T03:10:17.195Z,3.95
2023-06-04T03:12:45.041Z,3.70
2023-06-04T03:15:12.856Z,4.18
2023-06-04T03:17:40.163Z,3.85
2023-06-04T03:20:08.846Z,4.22
2023-06-04T03:22:37.209Z,4.00
2023-06-04T03:25:05.531Z,3.58
2023-06-04T03:27:33.887Z,3.65
2023-06-04T03:30:01.540Z,3.78
2023-06-04T03:32:35.397Z,3.40
2023-06-04T03:35:04.200Z,3.70
2023-06-04T03:37:34.118Z,3.83
2023-06-04T03:40:02.236Z,3.58
2023-06-04T03:42:29.366Z,3.53
2023-06-04T03:44:59.336Z,3.38
2023-06-04T03:47:27.960Z,3.47
2023-06-04T03:49:55.759Z,3.72
2023-06-04T03:52:22.965Z,3.33
2023-06-04T03:54:50.188Z,3.08
2023-06-04T03:57:19.121Z,3.35
2023-06-04T03:59:47.054Z,3.05
2023-06-04T04:02:14.339Z,3.33
2023-06-04T04:04:41.507Z,3.95
2023-06-04T04:07:08.806Z,3.72
2023-06-04T04:09:36.764Z,3.58
2023-06-04T04:12:04.909Z,3.83
2023-06-04T04:14:33.865Z,4.30
2023-06-04T04:17:01.750Z,3.75
2023-06-04T04:19:30.004Z,3.50
2023-06-04T04:21:57.275Z,3.90
2023-06-04T04:24:28.720Z,4.38
2023-06-04T04:27:00.447Z,3.58
2023-06-04T04:29:28.890Z,3.63
2023-06-04T04:32:01.724Z,3.35
2023-06-04T04:34:28.893Z,3.60
2023-06-04T04:36:57.936Z,3.42
2023-06-04T04:39:27.062Z,3.83
2023-06-04T04:41:57.128Z,3.92
2023-06-04T04:44:24.180Z,3.67
2023-06-04T04:46:52.394Z,3.60
2023-06-04T04:49:19.540Z,3.55
2023-06-04T04:51:47.965Z,3.30
2023-06-04T04:54:16.759Z,3.10
2023-06-04T04:56:43.933Z,2.47
2023-06-04T04:59:11.296Z,3.08
2023-06-04T05:01:38.363Z,2.58
2023-06-04T05:04:09.547Z,3.17
2023-06-04T05:06:38.850Z,2.67
2023-06-04T05:09:06.754Z,2.90
2023-06-04T05:11:33.911Z,3.13
2023-06-04T05:14:01.731Z,2.30
2023-06-04T05:16:29.238Z,2.17
2023-06-04T05:18:58.268Z,2.22
2023-06-04T05:21:30.080Z,1.83
2023-06-04T05:24:02.265Z,1.75
2023-06-04T05:26:34.412Z,2.03
2023-06-04T05:29:08.701Z,1.83
2023-06-04T05:31:41.277Z,2.15
2023-06-04T05:34:12.468Z,2.22
2023-06-04T05:36:40.738Z,2.50
2023-06-04T05:39:10.546Z,2.22
2023-06-04T05:41:50.489Z,2.33
2023-06-04T05:44:18.476Z,2.13
2023-06-04T05:46:45.971Z,2.35
2023-06-04T05:49:14.118Z,2.15
2023-06-04T05:51:41.472Z,1.80
2023-06-04T05:54:09.418Z,1.50
2023-06-04T05:56:40.198Z,1.60
2023-06-04T05:59:07.686Z,1.52
2023-06-04T06:01:35.992Z,1.80
2023-06-04T06:04:03.426Z,1.40
2023-06-04T06:06:31.344Z,1.98
2023-06-04T06:08:59.444Z,1.60
2023-06-04T06:11:28.211Z,1.90
2023-06-04T06:13:56.324Z,1.85
2023-06-04T06:16:23.740Z,1.48
2023-06-04T06:18:50.912Z,1.55
2023-06-04T06:21:18.048Z,1.40
2023-06-04T06:23:45.334Z,1.80
2023-06-04T06:26:13.635Z,1.70
2023-06-04T06:28:49.253Z,1.02
2023-06-04T06:31:17.121Z,1.45
2023-06-04T06:33:44.231Z,1.30
2023-06-04T06:36:14.954Z,1.20
2023-06-04T06:38:42.178Z,1.10
2023-06-04T06:41:09.687Z,1.10
2023-06-04T06:43:37.098Z,1.08
2023-06-04T06:46:04.196Z,0.80
2023-06-04T06:48:31.349Z,0.77
2023-06-04T06:50:58.573Z,0.80
2023-06-04T06:53:25.726Z,0.93
2023-06-04T06:55:52.809Z,0.77
2023-06-04T06:58:19.971Z,0.90
2023-06-04T07:00:47.160Z,0.98
2023-06-04T07:03:14.508Z,1.00
2023-06-04T07:05:41.785Z,0.90
2023-06-04T07:08:08.944Z,1.00
2023-06-04T07:10:36.181Z,0.95
2023-06-04T07:13:03.365Z,0.90
2023-06-04T07:15:30.505Z,0.77
2023-06-04T07:17:57.678Z,0.90
2023-06-04T07:20:24.937Z,0.93
2023-06-04T07:22:52.255Z,0.88
2023-06-04T07:25:20.824Z,0.73
2023-06-04T07:27:51.956Z,0.70
2023-06-04T07:30:19.967Z,0.82
2023-06-04T07:32:50.645Z,0.88
2023-06-04T07:35:17.965Z,0.90
2023-06-04T07:37:50.219Z,0.90
2023-06-04T07:40:18.653Z,0.93
2023-06-04T07:42:47.626Z,1.10
2023-06-04T07:45:15.094Z,0.80
2023-06-04T07:47:42.873Z,0.70
2023-06-04T07:50:10.357Z,0.82
2023-06-04T07:52:37.507Z,1.00
2023-06-04T07:55:05.074Z,0.80
2023-06-04T07:57:33.306Z,0.65
2023-06-04T08:00:01.204Z,0.90
2023-06-04T08:02:28.467Z,0.80
2023-06-04T08:04:55.899Z,0.75
2023-06-04T08:07:23.350Z,0.90
2023-06-04T08:09:51.178Z,0.80
2023-06-04T08:12:18.308Z,0.80
2023-06-04T08:14:45.474Z,0.82
2023-06-04T08:17:12.628Z,0.90
2023-06-04T08:19:39.828Z,0.73
2023-06-04T08:22:07.764Z,0.93
2023-06-04T08:24:35.165Z,0.90
2023-06-04T08:27:02.317Z,0.90
2023-06-04T08:29:29.436Z,0.90
2023-06-04T08:31:56.812Z,0.80
2023-06-04T08:34:24.040Z,0.90
2023-06-04T08:36:51.124Z,0.82
2023-06-04T08:39:18.707Z,0.60
2023-06-04T08:41:50.641Z,1.00
2023-06-04T08:44:18.877Z,1.00
2023-06-04T08:46:46.312Z,0.88
2023-06-04T08:49:14.524Z,0.98
2023-06-04T08:51:42.002Z,1.00
2023-06-04T08:54:10.392Z,0.70
2023-06-04T08:56:39.273Z,0.93
2023-06-04T08:59:08.856Z,1.13
2023-06-04T09:01:39.998Z,0.60
2023-06-04T09:04:12.579Z,0.95
2023-06-04T09:06:41.220Z,0.90
2023-06-04T09:09:13.733Z,0.98
2023-06-04T09:11:52.540Z,0.70
2023-06-04T09:14:20.310Z,0.70
2023-06-04T09:16:49.786Z,1.08
2023-06-04T09:19:17.989Z,0.80
2023-06-04T09:21:57.221Z,0.85
2023-06-04T09:24:43.023Z,0.90
2023-06-04T09:27:20.559Z,0.98
2023-06-04T09:29:55.295Z,0.77
2023-06-04T09:32:28.223Z,0.80
2023-06-04T09:34:58.600Z,0.90
2023-06-04T09:39:56.958Z,0.80
2023-06-04T09:42:25.312Z,0.73
2023-06-04T09:44:52.582Z,0.70
2023-06-04T09:47:19.834Z,0.80
2023-06-04T09:49:49.252Z,1.05
2023-06-04T09:52:16.496Z,1.07
2023-06-04T09:54:44.409Z,0.90
2023-06-04T09:57:22.368Z,0.80
2023-06-04T09:59:55.336Z,1.00
2023-06-04T10:02:23.563Z,0.80
2023-06-04T10:05:01.074Z,0.85
2023-06-04T10:07:28.329Z,0.90
2023-06-04T10:09:57.211Z,1.23
2023-06-04T10:12:28.439Z,0.90
2023-06-04T10:15:00.529Z,0.77
2023-06-04T10:17:30.371Z,0.70
2023-06-04T10:20:01.334Z,0.98
2023-06-04T10:22:30.715Z,0.80
2023-06-04T10:24:58.842Z,0.90
2023-06-04T10:27:26.813Z,0.90
2023-06-04T10:29:54.266Z,0.77
2023-06-04T10:32:21.791Z,0.75
2023-06-04T10:34:49.518Z,0.80
2023-06-04T10:37:24.332Z,0.90
2023-06-04T10:39:57.105Z,1.13
2023-06-04T10:42:25.394Z,0.70
2023-06-04T10:44:57.594Z,0.93
2023-06-04T10:47:31.934Z,0.85
2023-06-04T10:50:12.393Z,1.08
2023-06-04T10:52:51.406Z,0.80
2023-06-04T10:55:18.730Z,0.88
2023-06-04T10:57:59.615Z,1.00
2023-06-04T11:00:37.686Z,0.80
2023-06-04T11:03:09.361Z,0.70
2023-06-04T11:05:39.114Z,0.95
2023-06-04T11:08:11.093Z,0.77
2023-06-04T11:10:47.721Z,0.70
2023-06-04T11:13:16.006Z,0.82
2023-06-04T11:15:44.938Z,0.80
2023-06-04T11:18:16.736Z,0.90
2023-06-04T11:20:49.319Z,1.13
2023-06-04T11:23:17.291Z,0.73
2023-06-04T11:25:45.469Z,0.90
2023-06-04T11:28:20.749Z,0.90
2023-06-04T11:31:04.674Z,0.80
2023-06-04T11:33:32.285Z,0.82
2023-06-04T11:35:59.540Z,0.77
2023-06-04T11:38:26.635Z,0.90
2023-06-04T11:41:01.734Z,0.82
2023-06-04T11:43:30.022Z,0.85
2023-06-04T11:45:58.160Z,0.65
2023-06-04T11:48:25.605Z,0.80
2023-06-04T11:50:53.520Z,0.90
2023-06-04T11:53:21.036Z,0.82
2023-06-04T11:55:48.440Z,0.52
2023-06-04T11:58:16.926Z,0.80
2023-06-04T12:00:44.280Z,0.90
2023-06-04T12:03:11.564Z,0.80
2023-06-04T12:05:38.814Z,0.90
2023-06-04T12:08:09.524Z,0.88
2023-06-04T12:10:41.229Z,0.80
2023-06-04T12:13:08.952Z,0.90
2023-06-04T12:15:36.293Z,0.82
2023-06-04T12:18:06.919Z,1.10
2023-06-04T12:20:41.278Z,0.88
2023-06-04T12:23:08.901Z,0.90
2023-06-04T12:25:39.096Z,1.02
2023-06-04T12:30:38.683Z,0.85
2023-06-04T12:33:06.152Z,1.00
2023-06-04T12:35:34.118Z,0.80
2023-06-04T12:38:01.545Z,0.82
2023-06-04T12:40:28.656Z,0.80
2023-06-04T12:42:55.855Z,1.10
2023-06-04T12:45:23.010Z,0.80
2023-06-04T12:47:50.186Z,0.98
2023-06-04T12:50:21.433Z,0.90
2023-06-04T12:52:49.804Z,1.02
2023-06-04T12:55:17.075Z,0.90
2023-06-04T12:57:46.006Z,0.80
2023-06-04T13:00:13.561Z,0.80
2023-06-04T13:02:40.966Z,0.80
2023-06-04T13:05:08.837Z,1.00
2023-06-04T13:07:36.066Z,1.00
2023-06-04T13:10:03.411Z,0.77
2023-06-04T13:12:30.729Z,1.00
2023-06-04T13:14:58.017Z,0.80
2023-06-04T13:17:25.280Z,0.70
2023-06-04T13:19:53.316Z,0.80
2023-06-04T13:22:20.649Z,0.90
2023-06-04T13:24:47.785Z,1.00
2023-06-04T13:27:15.111Z,1.00
2023-06-04T13:29:44.640Z,0.90
2023-06-04T13:32:12.325Z,1.02
2023-06-04T13:34:39.680Z,0.75
2023-06-04T13:37:08.258Z,1.08
2023-06-04T13:39:35.479Z,0.90
2023-06-04T13:42:02.653Z,1.10
2023-06-04T13:44:30.142Z,0.95
2023-06-04T13:47:00.263Z,0.88
2023-06-04T13:51:54.491Z,1.17
2023-06-04T13:54:21.676Z,0.80
2023-06-04T13:56:50.048Z,0.70
2023-06-04T13:59:17.259Z,0.77
2023-06-04T14:01:44.601Z,1.08
2023-06-04T14:04:12.814Z,0.98
2023-06-04T14:06:40.119Z,0.80
2023-06-04T14:09:08.216Z,0.90
2023-06-04T14:11:35.443Z,1.00
2023-06-04T14:14:02.990Z,0.88
2023-06-04T14:16:30.265Z,1.00
2023-06-04T14:18:57.613Z,1.10
2023-06-04T14:21:24.897Z,0.77
2023-06-04T14:23:52.055Z,0.90
2023-06-04T14:26:19.350Z,1.00
2023-06-04T14:28:46.514Z,0.90
2023-06-04T14:31:13.712Z,0.80
2023-06-04T14:33:40.946Z,0.80
2023-06-04T14:36:08.256Z,0.93
2023-06-04T14:38:35.369Z,0.80
2023-06-04T14:41:02.613Z,0.90
2023-06-04T14:43:30.081Z,1.00
2023-06-04T14:45:57.368Z,0.82
2023-06-04T14:48:24.954Z,0.98
2023-06-04T14:50:56.021Z,1.08
2023-06-04T14:53:24.323Z,1.00
2023-06-04T14:55:53.084Z,0.80
2023-06-04T14:58:20.264Z,0.90
2023-06-04T15:00:47.542Z,0.80
2023-06-04T15:03:14.886Z,0.90
2023-06-04T15:05:42.181Z,1.17
2023-06-04T15:08:09.873Z,0.82
2023-06-04T15:10:37.219Z,0.80
2023-06-04T15:13:04.754Z,0.73
2023-06-04T15:15:32.065Z,0.98
2023-06-04T15:17:59.407Z,0.90
2023-06-04T15:20:28.610Z,0.90
2023-06-04T15:22:56.410Z,0.90
2023-06-04T15:25:23.633Z,1.25
2023-06-04T15:27:51.082Z,1.00
2023-06-04T15:30:18.959Z,0.90
2023-06-04T15:32:46.152Z,0.80
2023-06-04T15:35:13.587Z,1.35
2023-06-04T15:37:41.055Z,1.27
2023-06-04T15:40:10.697Z,0.90
2023-06-04T15:42:38.010Z,1.30
2023-06-04T15:45:05.463Z,0.95
2023-06-04T15:47:32.705Z,1.20
2023-06-04T15:49:59.919Z,0.80
2023-06-04T15:52:27.111Z,0.90
2023-06-04T15:54:54.282Z,0.80
2023-06-04T15:57:21.580Z,1.10
2023-06-04T15:59:48.676Z,0.90
2023-06-04T16:02:16.142Z,0.75
2023-06-04T16:04:43.341Z,0.88
2023-06-04T16:07:10.525Z,0.90
2023-06-04T16:09:37.984Z,1.00
2023-06-04T16:12:06.634Z,1.02
2023-06-04T16:14:33.893Z,0.80
2023-06-04T16:17:01.274Z,1.05
2023-06-04T16:19:28.433Z,0.98
2023-06-04T16:21:56.129Z,0.93
2023-06-04T16:24:23.452Z,0.70
2023-06-04T16:26:50.811Z,1.20
2023-06-04T16:29:18.120Z,1.17
2023-06-04T16:31:45.263Z,1.00
2023-06-04T16:34:12.409Z,0.80
2023-06-04T16:36:39.675Z,0.85
2023-06-04T16:39:06.948Z,1.08
2023-06-04T16:41:34.332Z,1.17
2023-06-04T16:44:01.665Z,1.23
2023-06-04T16:46:28.874Z,0.95
2023-06-04T16:48:56.160Z,1.08
2023-06-04T16:51:23.376Z,0.95
2023-06-04T16:53:50.660Z,1.00
2023-06-04T16:56:17.910Z,0.82
2023-06-04T16:58:45.862Z,1.00
2023-06-04T17:01:13.183Z,0.88
2023-06-04T17:03:40.715Z,0.88
2023-06-04T17:06:08.223Z,1.10
2023-06-04T17:08:35.560Z,1.00
2023-06-04T17:11:02.828Z,0.77
2023-06-04T17:13:29.949Z,1.10
2023-06-04T17:15:57.262Z,1.20
2023-06-04T17:18:24.447Z,0.85
2023-06-04T17:20:51.658Z,1.10
2023-06-04T17:23:26.833Z,0.90
2023-06-04T17:25:54.547Z,0.90
2023-06-04T17:28:21.741Z,0.80
2023-06-04T17:30:49.286Z,1.05
2023-06-04T17:33:16.686Z,0.90
2023-06-04T17:35:43.966Z,1.13
2023-06-04T17:38:11.223Z,1.10
2023-06-04T17:40:38.832Z,0.80
2023-06-04T17:43:06.041Z,1.15
2023-06-04T17:45:33.488Z,1.08
2023-06-04T17:48:00.855Z,0.90
2023-06-04T17:50:28.252Z,0.93
2023-06-04T17:52:56.560Z,1.38
2023-06-04T17:55:24.765Z,0.98
2023-06-04T17:57:51.903Z,1.10
2023-06-04T18:00:19.291Z,1.10
2023-06-04T18:02:47.020Z,1.00
2023-06-04T18:05:14.323Z,1.10
2023-06-04T18:07:41.613Z,0.90
2023-06-04T18:10:09.224Z,0.73
2023-06-04T18:12:37.155Z,1.00
2023-06-04T18:15:05.654Z,0.98
2023-06-04T18:17:33.414Z,0.80
2023-06-04T18:20:00.681Z,0.90
2023-06-04T18:22:28.176Z,1.10
2023-06-04T18:24:55.397Z,1.15
2023-06-04T18:27:22.767Z,0.93
2023-06-04T18:29:50.785Z,0.80
2023-06-04T18:32:19.356Z,1.20
2023-06-04T18:34:46.741Z,1.20
2023-06-04T18:37:13.833Z,1.10
2023-06-04T18:39:41.635Z,1.20
2023-06-04T18:42:21.575Z,1.00
2023-06-04T18:44:58.159Z,1.20
2023-06-04T18:47:25.481Z,1.10
2023-06-04T18:49:52.579Z,1.40
2023-06-04T18:52:19.753Z,2.97
2023-06-04T18:54:47.005Z,3.60
2023-06-04T18:57:15.861Z,2.50
2023-06-04T18:59:43.117Z,1.50
2023-06-04T19:02:10.409Z,1.20
2023-06-04T19:04:37.853Z,1.27
2023-06-04T19:07:05.309Z,1.20
2023-06-04T19:09:32.484Z,1.20
2023-06-04T19:11:59.650Z,1.30
2023-06-04T19:14:27.119Z,1.10
2023-06-04T19:16:54.422Z,1.20
2023-06-04T19:19:21.738Z,1.20
2023-06-04T19:21:53.666Z,1.10
2023-06-04T19:24:24.596Z,1.40
2023-06-04T19:26:52.352Z,1.10
2023-06-04T19:29:20.065Z,1.40
2023-06-04T19:31:47.923Z,1.20
2023-06-04T19:34:15.269Z,1.30
2023-06-04T19:36:42.664Z,1.00
2023-06-04T19:39:09.792Z,1.20
2023-06-04T19:41:37.117Z,1.23
2023-06-04T19:44:04.253Z,1.10
2023-06-04T19:46:31.480Z,1.15
2023-06-04T19:48:59.829Z,1.92
2023-06-04T19:51:28.330Z,1.30
2023-06-04T19:53:57.072Z,1.25
2023-06-04T19:56:24.257Z,1.20
2023-06-04T19:58:52.070Z,1.17
2023-06-04T20:01:19.205Z,1.13
2023-06-04T20:03:46.451Z,1.08
2023-06-04T20:06:13.645Z,1.30
2023-06-04T20:08:41.051Z,1.10
2023-06-04T20:11:08.307Z,1.27
2023-06-04T20:13:35.672Z,1.10
2023-06-04T20:16:03.180Z,1.17
2023-06-04T20:18:32.697Z,1.00
2023-06-04T20:21:00.729Z,1.10
2023-06-04T20:23:28.075Z,1.10
2023-06-04T20:25:55.408Z,1.00
2023-06-04T20:28:22.599Z,1.35
2023-06-04T20:30:49.798Z,1.73
2023-06-04T20:33:17.036Z,1.00
2023-06-04T20:35:44.222Z,1.23
2023-06-04T20:38:11.417Z,1.17
2023-06-04T20:40:38.862Z,1.20
2023-06-04T20:43:06.230Z,1.10
2023-06-04T20:45:33.414Z,1.10
2023-06-04T20:48:00.749Z,1.25
2023-06-04T20:50:27.869Z,1.13
2023-06-04T20:52:54.919Z,1.15
2023-06-04T20:55:22.369Z,1.00
2023-06-04T20:57:49.499Z,1.00
2023-06-04T21:00:16.987Z,1.30
2023-06-04T21:02:44.134Z,1.08
2023-06-04T21:05:11.372Z,1.15
2023-06-04T21:07:38.504Z,1.30
2023-06-04T21:10:06.019Z,1.33
2023-06-04T21:12:33.180Z,1.58
2023-06-04T21:15:00.458Z,1.25
2023-06-04T21:17:27.614Z,1.17
2023-06-04T21:19:54.774Z,1.30
2023-06-04T21:22:21.928Z,1.50
2023-06-04T21:24:49.109Z,1.45
2023-06-04T21:27:16.297Z,1.70
2023-06-04T21:29:43.375Z,1.38
2023-06-04T21:32:10.703Z,1.38
2023-06-04T21:34:38.897Z,1.25
2023-06-04T21:37:06.035Z,1.50
2023-06-04T21:39:33.154Z,1.50
2023-06-04T21:42:00.271Z,1.35
2023-06-04T21:44:27.357Z,1.42
2023-06-04T21:46:55.004Z,1.58
2023-06-04T21:49:22.352Z,1.38
2023-06-04T21:51:49.512Z,1.20
2023-06-04T21:54:16.627Z,1.60
2023-06-04T21:56:43.761Z,1.77
2023-06-04T21:59:10.870Z,1.33
2023-06-04T22:01:38.095Z,1.63
2023-06-04T22:04:05.254Z,1.70
2023-06-04T22:06:32.379Z,1.40
2023-06-04T22:08:59.525Z,1.63
2023-06-04T22:11:26.738Z,1.55
2023-06-04T22:13:53.833Z,1.65
2023-06-04T22:16:21.101Z,1.60
2023-06-04T22:18:53.326Z,1.60
2023-06-04T22:21:21.587Z,1.75
2023-06-04T22:23:50.167Z,1.92
2023-06-04T22:26:33.110Z,2.15
2023-06-04T22:29:05.047Z,1.95
2023-06-04T22:31:32.755Z,1.70
2023-06-04T22:33:59.824Z,2.00
2023-06-04T22:36:27.174Z,2.40
2023-06-04T22:38:54.493Z,2.40
2023-06-04T22:41:22.011Z,1.95
2023-06-04T22:43:49.180Z,2.13
2023-06-04T22:46:16.345Z,1.95
2023-06-04T22:48:43.633Z,2.05
2023-06-04T22:51:10.982Z,2.70
2023-06-04T22:53:38.373Z,2.30
2023-06-04T22:56:08.107Z,1.92
2023-06-04T22:58:35.314Z,1.90
2023-06-04T23:01:03.546Z,2.00
2023-06-04T23:03:30.777Z,2.17
2023-06-04T23:05:58.029Z,2.17
2023-06-04T23:08:25.194Z,2.38
2023-06-04T23:10:52.313Z,2.35
2023-06-04T23:13:19.663Z,2.20
2023-06-04T23:15:46.871Z,2.20
2023-06-04T23:18:14.048Z,2.35
2023-06-04T23:20:41.302Z,2.55
2023-06-04T23:23:08.447Z,2.88
2023-06-04T23:25:35.559Z,2.58
2023-06-04T23:28:02.754Z,2.35
2023-06-04T23:30:29.858Z,2.78
2023-06-04T23:32:59.361Z,2.60
2023-06-04T23:35:29.572Z,2.70
2023-06-04T23:37:56.697Z,2.63
2023-06-04T23:40:23.927Z,2.65
2023-06-04T23:42:51.015Z,2.55
2023-06-04T23:45:18.204Z,2.30
2023-06-04T23:47:46.132Z,2.65
2023-06-04T23:50:13.306Z,2.60
2023-06-04T23:52:41.047Z,2.35
2023-06-04T23:55:08.454Z,2.25
2023-06-04T23:57:35.572Z,2.50
